Map

Track Data

SID SEASON NUMBER BASIN SUBBASIN NAME ISO_TIME NATURE LAT LON WMO_WIND WMO_PRES WMO_AGENCY TRACK_TYPE DIST2LAND LANDFALL IFLAG USA_AGENCY USA_ATCF_ID USA_LAT USA_LON USA_RECORD USA_STATUS USA_WIND USA_PRES USA_SSHS USA_R34_NE USA_R34_SE USA_R34_SW USA_R34_NW USA_R50_NE USA_R50_SE USA_R50_SW USA_R50_NW USA_R64_NE USA_R64_SE USA_R64_SW USA_R64_NW USA_POCI USA_ROCI USA_RMW USA_EYE TOKYO_LAT TOKYO_LON TOKYO_GRADE TOKYO_WIND TOKYO_PRES TOKYO_R50_DIR TOKYO_R50_LONG TOKYO_R50_SHORT TOKYO_R30_DIR TOKYO_R30_LONG TOKYO_R30_SHORT TOKYO_LAND CMA_LAT CMA_LON CMA_CAT CMA_WIND CMA_PRES HKO_LAT HKO_LON HKO_CAT HKO_WIND HKO_PRES NEWDELHI_LAT NEWDELHI_LON NEWDELHI_GRADE NEWDELHI_WIND NEWDELHI_PRES NEWDELHI_CI NEWDELHI_DP NEWDELHI_POCI REUNION_LAT REUNION_LON REUNION_TYPE REUNION_WIND REUNION_PRES REUNION_TNUM REUNION_CI REUNION_RMW REUNION_R34_NE REUNION_R34_SE REUNION_R34_SW REUNION_R34_NW REUNION_R50_NE REUNION_R50_SE REUNION_R50_SW REUNION_R50_NW REUNION_R64_NE REUNION_R64_SE REUNION_R64_SW REUNION_R64_NW BOM_LAT BOM_LON BOM_TYPE BOM_WIND BOM_PRES BOM_TNUM BOM_CI BOM_RMW BOM_R34_NE BOM_R34_SE BOM_R34_SW BOM_R34_NW BOM_R50_NE BOM_R50_SE BOM_R50_SW BOM_R50_NW BOM_R64_NE BOM_R64_SE BOM_R64_SW BOM_R64_NW BOM_ROCI BOM_POCI BOM_EYE BOM_POS_METHOD BOM_PRES_METHOD NADI_LAT NADI_LON NADI_CAT NADI_WIND NADI_PRES WELLINGTON_LAT WELLINGTON_LON WELLINGTON_WIND WELLINGTON_PRES DS824_LAT DS824_LON DS824_STAGE DS824_WIND DS824_PRES TD9636_LAT TD9636_LON TD9636_STAGE TD9636_WIND TD9636_PRES TD9635_LAT TD9635_LON TD9635_WIND TD9635_PRES TD9635_ROCI NEUMANN_LAT NEUMANN_LON NEUMANN_CLASS NEUMANN_WIND NEUMANN_PRES MLC_LAT MLC_LON MLC_CLASS MLC_WIND MLC_PRES USA_GUST BOM_GUST BOM_GUST_PER REUNION_GUST REUNION_GUST_PER USA_SEAHGT USA_SEARAD_NE USA_SEARAD_SE USA_SEARAD_SW USA_SEARAD_NW STORM_SPEED STORM_DIR
1927011S11061 1927 1 SI MM NOT_NAMED 1927-01-11 00:00:00 TS -10.6000 60.5000 main 1104 1050 _________O____ -1 -10.6000 60.5000 TC 25 12 222
1927011S11061 1927 1 SI MM NOT_NAMED 1927-01-11 03:00:00 TS -11.0451 60.0952 main 1050 986 _________P____ -1 -11.0451 60.0952 TC 25 12 221
1927011S11061 1927 1 SI MM NOT_NAMED 1927-01-11 06:00:00 TS -11.5000 59.7000 main 986 933 _________O____ -1 -11.5000 59.7000 TC 25 12 219
1927011S11061 1927 1 SI MM NOT_NAMED 1927-01-11 09:00:00 TS -11.9775 59.3274 main 922 861 _________P____ -1 -11.9775 59.3274 TC 25 12 214
1927011S11061 1927 1 SI MM NOT_NAMED 1927-01-11 12:00:00 TS -12.5000 59.0000 main 861 801 _________O____ -1 -12.5000 59.0000 TC 25 13 209
1927011S11061 1927 1 SI MM NOT_NAMED 1927-01-11 15:00:00 TS -13.0775 58.7125 main 790 721 _________P____ -1 -13.0775 58.7125 TC 25 13 202
1927011S11061 1927 1 SI MM NOT_NAMED 1927-01-11 18:00:00 TS -13.7000 58.5000 main 721 653 _________O____ -1 -13.7000 58.5000 TC 25 13 195
1927011S11061 1927 1 SI MM NOT_NAMED 1927-01-11 21:00:00 TS -14.3275 58.3624 main 653 574 _________P____ -1 -14.3275 58.3624 TC 25 13 189
1927011S11061 1927 1 SI MM NOT_NAMED 1927-01-12 00:00:00 TS -15.0000 58.3000 main 574 496 _________O____ -1 -15.0000 58.3000 TC 25 14 184
1927011S11061 1927 1 SI MM NOT_NAMED 1927-01-12 03:00:00 TS -15.7350 58.2626 main 496 407 _________P____ -1 -15.7350 58.2626 TC 25 15 0
1927011S11061 1927 1 SI MM NOT_NAMED 1927-01-12 06:00:00 TS -16.5000 58.3000 main 407 332 _________O____ -1 -16.5000 58.3000 TC 25 15 174
1927011S11061 1927 1 SI MM NOT_NAMED 1927-01-12 09:00:00 TS -17.2650 58.4273 main 321 253 _________P____ -1 -17.2650 58.4273 TC 25 15 169
1927011S11061 1927 1 SI MM NOT_NAMED 1927-01-12 12:00:00 TS -18.0000 58.6000 main 253 197 _________O____ -1 -18.0000 58.6000 TC 25 14 168
1927011S11061 1927 1 SI MM NOT_NAMED 1927-01-12 15:00:00 TS -18.6724 58.7427 main 188 154 _________P____ -1 -18.6724 58.7427 TC 25 13 168
1927011S11061 1927 1 SI MM NOT_NAMED 1927-01-12 18:00:00 TS -19.3000 58.9000 main 154 137 _________O____ -1 -19.3000 58.9000 TC 25 13 165
1927011S11061 1927 1 SI MM NOT_NAMED 1927-01-12 21:00:00 TS -19.9600 59.1073 main 139 137 _________P____ -1 -19.9600 59.1073 TC 25 13 163
1927011S11061 1927 1 SI MM NOT_NAMED 1927-01-13 00:00:00 TS -20.5000 59.3000 main 157 157 _________O____ -1 -20.5000 59.3000 TC 25 9 161
1927011S11061 1927 1 SI MM NOT_NAMED 1927-01-13 03:00:00 TS -20.8099 59.4153 main 175 175 _________P____ -1 -20.8099 59.4153 TC 25 5 160
1927011S11061 1927 1 SI MM NOT_NAMED 1927-01-13 06:00:00 TS -21.0000 59.5000 main 193 193 _________O____ -1 -21.0000 59.5000 TC 25 4 157
1927011S11061 1927 1 SI MM NOT_NAMED 1927-01-13 09:00:00 TS -21.2150 59.6000 main 212 212 _________P____ -1 -21.2150 59.6000 TC 25 4 155
1927011S11061 1927 1 SI MM NOT_NAMED 1927-01-13 12:00:00 TS -21.4000 59.7000 main 230 230 _________O____ -1 -21.4000 59.7000 TC 25 4 150
1927011S11061 1927 1 SI MM NOT_NAMED 1927-01-13 15:00:00 TS -21.5575 59.8075 main 250 250 _________P____ -1 -21.5575 59.8075 TC 25 4 149
1927011S11061 1927 1 SI MM NOT_NAMED 1927-01-13 18:00:00 TS -21.7000 59.9000 main 264 264 _________O____ -1 -21.7000 59.9000 TC 25 3 155
1927011S11061 1927 1 SI MM NOT_NAMED 1927-01-13 21:00:00 TS -21.8275 59.9426 main 270 270 _________P____ -1 -21.8275 59.9426 TC 25 3 163
1927011S11061 1927 1 SI MM NOT_NAMED 1927-01-14 00:00:00 TS -22.0000 60.0000 main 291 291 _________O____ -1 -22.0000 60.0000 TC 25 5 158
1927011S11061 1927 1 SI MM NOT_NAMED 1927-01-14 03:00:00 TS -22.2775 60.1424 main 319 319 _________P____ -1 -22.2775 60.1424 TC 25 7 155
1927011S11061 1927 1 SI MM NOT_NAMED 1927-01-14 06:00:00 TS -22.6000 60.3000 main 356 356 _________O____ -1 -22.6000 60.3000 TC 25 7 159
1927011S11061 1927 1 SI MM NOT_NAMED 1927-01-14 09:00:00 TS -22.9000 60.4001 main 386 386 _________P____ -1 -22.9000 60.4001 TC 25 6 163
1927011S11061 1927 1 SI MM NOT_NAMED 1927-01-14 12:00:00 TS -23.2000 60.5000 main 417 417 _________O____ -1 -23.2000 60.5000 TC 25 7 160
1927011S11061 1927 1 SI MM NOT_NAMED 1927-01-14 15:00:00 TS -23.5075 60.6425 main 449 449 _________P____ -1 -23.5075 60.6425 TC 25 7 155
1927011S11061 1927 1 SI MM NOT_NAMED 1927-01-14 18:00:00 TS -23.8000 60.8000 main 487 487 _________O____ -1 -23.8000 60.8000 TC 25 6 153
1927011S11061 1927 1 SI MM NOT_NAMED 1927-01-14 21:00:00 TS -24.0600 60.9524 main 526 526 _________P____ -1 -24.0600 60.9524 TC 25 6 151
1927011S11061 1927 1 SI MM NOT_NAMED 1927-01-15 00:00:00 TS -24.3000 61.1000 main 549 _________O____ -1 -24.3000 61.1000 TC 25 6 150

About IBTrACS Database

This database is a web-friendly format of International Best Track Archive for Climate Stewardship (IBTrACS), a global best track data archive curated by NOAA dating back to 1842.

Updated: 2021-11-26